Time;durP1;ratioP1;P1;durP2;ratioP2;P2;SDS_P1;SDS_P2;PMS_P1;PMS_P2;Temp;Humidity;BMP_temperature;BMP_pressure;BME280_temperature;BME280_humidity;BME280_pressure;Samples;Min_cycle;Max_cycle;Signal;HPM_P1;HPM_P2
2022/07/15 00:01:16;;;;;;;23.77;10.70;;;;;;;21.69;49.67;100300.70;123638;1098;104365;-76
2022/07/15 00:03:49;;;;;;;22.73;10.73;;;;;;;21.65;50.23;100296.33;123579;1098;105541;-77
2022/07/15 00:06:21;;;;;;;25.52;10.48;;;;;;;21.65;50.18;100294.53;123523;1099;104255;-77
2022/07/15 00:08:52;;;;;;;25.63;10.10;;;;;;;21.65;50.76;100299.88;123592;1099;104198;-76
2022/07/15 00:11:24;;;;;;;20.03;10.33;;;;;;;21.64;50.47;100298.09;123471;1098;104409;-76
2022/07/15 00:14:00;;;;;;;21.97;9.90;;;;;;;21.66;50.68;100300.75;123524;1099;104422;-75
2022/07/15 00:16:42;;;;;;;22.57;9.90;;;;;;;21.62;50.31;100299.04;123970;1099;104393;-75
2022/07/15 00:19:14;;;;;;;;;;;;;;;21.59;50.49;100299.08;123982;1099;104293;-77
2022/07/15 00:21:45;;;;;;;22.63;9.03;;;;;;;21.55;51.14;100292.91;123671;1099;104268;-76
2022/07/15 00:24:17;;;;;;;21.53;9.27;;;;;;;21.52;50.74;100290.27;123547;1099;104313;-76
2022/07/15 00:26:49;;;;;;;19.10;8.50;;;;;;;21.50;51.34;100294.73;123596;1099;104875;-76
2022/07/15 00:29:20;;;;;;;23.00;9.53;;;;;;;21.48;51.90;100292.05;123624;1099;104261;-76
2022/07/15 00:31:52;;;;;;;20.40;8.67;;;;;;;21.46;51.19;100288.52;123594;1099;104363;-76
2022/07/15 00:34:24;;;;;;;17.27;8.47;;;;;;;21.46;51.73;100290.32;123546;1099;104310;-77
2022/07/15 00:36:55;;;;;;;23.97;8.97;;;;;;;21.42;51.78;100288.58;123590;1099;104322;-76
2022/07/15 00:39:27;;;;;;;21.87;8.40;;;;;;;21.36;52.26;100287.76;123607;1099;104450;-77
2022/07/15 00:41:58;;;;;;;22.73;8.40;;;;;;;21.31;52.30;100281.57;123585;1099;104344;-76
2022/07/15 00:44:30;;;;;;;18.43;7.80;;;;;;;21.31;52.44;100294.91;123555;1099;104249;-76
2022/07/15 00:47:02;;;;;;;16.93;7.83;;;;;;;21.31;52.01;100284.23;123662;1099;104261;-76
2022/07/15 00:49:33;;;;;;;18.90;8.30;;;;;;;21.30;52.13;100282.49;123586;1098;104328;-76
2022/07/15 00:52:07;;;;;;;19.27;8.20;;;;;;;21.23;52.03;100280.79;123594;1099;104424;-77
2022/07/15 00:54:38;;;;;;;20.80;8.73;;;;;;;21.22;52.02;100280.80;123619;1099;104277;-76
2022/07/15 00:57:10;;;;;;;15.73;8.07;;;;;;;21.22;52.80;100279.02;123595;1099;104348;-77
2022/07/15 00:59:42;;;;;;;19.13;8.87;;;;;;;21.20;52.34;100270.15;123625;1099;104288;-76
2022/07/15 01:02:15;;;;;;;25.57;8.70;;;;;;;21.17;52.42;100276.39;123622;1099;104287;-76
2022/07/15 01:04:48;;;;;;;18.40;8.30;;;;;;;21.13;52.85;100269.34;123548;1098;104274;-76
2022/07/15 01:07:20;;;;;;;19.33;8.20;;;;;;;21.12;52.64;100275.57;123600;1098;104269;-76
2022/07/15 01:09:51;;;;;;;19.33;7.90;;;;;;;21.09;53.29;100267.60;123624;1099;104344;-76
2022/07/15 01:12:23;;;;;;;21.25;8.60;;;;;;;21.06;52.97;100261.43;123519;1099;104312;-76
2022/07/15 01:14:56;;;;;;;18.07;8.13;;;;;;;21.02;53.39;100263.26;123299;1098;105565;-76
2022/07/15 01:17:27;;;;;;;22.10;8.37;;;;;;;20.99;54.05;100260.63;123485;1099;104421;-76
2022/07/15 01:19:58;;;;;;;23.07;8.63;;;;;;;20.99;53.59;100265.95;123480;1099;104431;-76
2022/07/15 01:22:32;;;;;;;19.82;8.08;;;;;;;20.97;53.99;100267.73;123448;1099;104297;-76
2022/07/15 01:25:04;;;;;;;20.90;9.30;;;;;;;20.94;54.38;100267.77;123464;1099;104453;-74
2022/07/15 01:27:35;;;;;;;19.83;8.07;;;;;;;20.94;54.25;100270.44;123704;1099;104295;-75
2022/07/15 01:30:09;;;;;;;20.77;8.00;;;;;;;20.92;53.75;100258.91;123688;1098;104357;-74
2022/07/15 01:32:41;;;;;;;19.92;8.58;;;;;;;20.89;54.46;100261.61;123678;1099;104335;-75
2022/07/15 01:35:13;;;;;;;20.50;8.50;;;;;;;20.85;53.76;100255.44;123469;1099;104268;-76
2022/07/15 01:37:47;;;;;;;17.47;8.43;;;;;;;20.77;53.79;100251.94;123255;1099;104354;-75
2022/07/15 01:40:20;;;;;;;20.03;8.57;;;;;;;20.77;53.93;100257.27;123205;1099;104517;-76
2022/07/15 01:42:52;;;;;;;20.77;8.88;;;;;;;20.76;53.98;100258.20;123276;1099;104331;-76
2022/07/15 01:45:23;;;;;;;20.60;9.00;;;;;;;20.74;54.49;100255.55;123277;1099;104737;-76
2022/07/15 01:47:56;;;;;;;22.60;8.10;;;;;;;20.73;54.07;100250.23;123482;1099;104341;-76
2022/07/15 01:50:49;;;;;;;20.43;8.87;;;;;;;20.69;54.85;100252.02;123532;1098;104198;-75
2022/07/15 01:53:24;;;;;;;19.47;8.40;;;;;;;20.67;55.05;100248.49;123587;1099;104271;-75
2022/07/15 01:55:57;;;;;;;20.10;9.05;;;;;;;20.64;54.36;100253.81;123480;1099;105367;-75
2022/07/15 01:58:31;;;;;;;19.27;8.30;;;;;;;20.65;55.15;100247.63;123471;1099;104338;-76
2022/07/15 02:01:05;;;;;;;19.43;8.90;;;;;;;20.65;54.48;100250.30;123619;1099;104290;-75
2022/07/15 02:03:38;;;;;;;24.80;9.70;;;;;;;20.64;54.89;100248.48;123709;1099;104309;-75
2022/07/15 02:06:10;;;;;;;21.30;9.70;;;;;;;20.64;54.34;100243.16;123613;1099;104384;-75
2022/07/15 02:08:42;;;;;;;20.50;9.65;;;;;;;20.62;55.25;100247.63;123517;1099;104360;-76
2022/07/15 02:11:17;;;;;;;20.10;8.70;;;;;;;20.57;54.44;100238.77;123544;1099;104334;-75
2022/07/15 02:13:53;;;;;;;21.60;9.37;;;;;;;20.53;54.60;100235.27;123525;1099;104239;-75
2022/07/15 02:16:27;;;;;;;21.27;9.43;;;;;;;20.46;55.11;100245.11;123583;1099;104258;-75
2022/07/15 02:19:01;;;;;;;21.93;8.93;;;;;;;20.41;54.68;100244.27;123560;1099;104287;-75
2022/07/15 02:21:32;;;;;;;23.20;9.57;;;;;;;20.42;55.67;100245.14;123561;1099;104396;-75
2022/07/15 02:24:06;;;;;;;19.87;9.93;;;;;;;20.43;55.08;100239.80;123527;1098;104227;-76
2022/07/15 02:26:38;;;;;;;21.40;9.17;;;;;;;20.44;55.90;100246.00;123536;1099;104309;-75
2022/07/15 02:29:09;;;;;;;21.47;9.20;;;;;;;20.47;55.71;100248.64;123756;1099;104267;-75
2022/07/15 02:31:41;;;;;;;22.57;9.57;;;;;;;20.50;55.62;100258.41;123766;1099;104210;-75
2022/07/15 02:34:13;;;;;;;21.65;9.35;;;;;;;20.53;56.19;100255.70;123754;1099;104402;-75
2022/07/15 02:36:44;;;;;;;18.93;9.17;;;;;;;20.55;55.96;100264.56;123798;1099;104255;-75
2022/07/15 02:39:16;;;;;;;20.67;9.37;;;;;;;20.58;55.85;100252.08;123813;1099;104303;-75
2022/07/15 02:41:47;;;;;;;23.43;10.17;;;;;;;20.61;56.05;100253.84;123462;1099;104434;-75
2022/07/15 02:44:19;;;;;;;21.80;9.57;;;;;;;20.67;56.50;100252.95;123287;1099;104409;-75
2022/07/15 02:46:52;;;;;;;24.45;9.75;;;;;;;20.69;55.95;100257.34;123264;1099;104373;-75
2022/07/15 02:49:29;;;;;;;23.33;9.50;;;;;;;20.72;56.48;100253.78;123304;1099;104408;-76
2022/07/15 02:52:01;;;;;;;21.80;9.70;;;;;;;20.72;55.96;100256.45;123190;1099;104515;-76
2022/07/15 02:54:34;;;;;;;22.17;9.93;;;;;;;20.69;55.67;100252.02;123353;1099;104316;-76
2022/07/15 02:57:06;;;;;;;22.53;9.53;;;;;;;20.70;55.71;100255.59;123238;1102;104424;-76
2022/07/15 02:59:39;;;;;;;22.87;10.10;;;;;;;20.68;56.63;100260.03;123222;1102;104348;-76
2022/07/15 03:02:10;;;;;;;22.73;10.20;;;;;;;20.72;56.02;100251.98;123250;1099;104341;-76
2022/07/15 03:04:55;;;;;;;23.62;9.38;;;;;;;20.77;56.29;100263.52;123206;1099;104351;-76
2022/07/15 03:07:30;;;;;;;35.00;10.43;;;;;;;20.80;56.41;100250.15;123215;1099;104310;-76
2022/07/15 03:10:05;;;;;;;26.20;9.13;;;;;;;20.84;56.91;100250.99;123493;1102;104304;-76
2022/07/15 03:12:37;;;;;;;34.40;9.53;;;;;;;20.86;56.32;100248.30;123556;1102;104351;-77
2022/07/15 03:15:13;;;;;;;27.10;10.03;;;;;;;20.87;56.03;100247.42;123523;1099;104401;-76
2022/07/15 03:17:44;;;;;;;25.50;10.60;;;;;;;20.89;56.77;100241.14;123395;1099;104875;-77
2022/07/15 03:20:16;;;;;;;23.43;10.47;;;;;;;20.93;56.36;100239.35;123352;1099;104428;-76
2022/07/15 03:22:55;;;;;;;20.50;10.17;;;;;;;20.94;56.58;100241.09;123400;1099;104402;-76
2022/07/15 03:25:27;;;;;;;23.53;10.00;;;;;;;20.97;56.60;100238.40;123268;1102;104425;-76
2022/07/15 03:27:59;;;;;;;26.20;10.03;;;;;;;21.03;57.12;100237.45;123363;1099;104414;-76
2022/07/15 03:30:30;;;;;;;23.77;10.13;;;;;;;21.06;57.18;100235.62;123213;1099;104415;-76
2022/07/15 03:33:02;;;;;;;25.50;11.53;;;;;;;21.13;56.91;100236.43;123260;1099;104421;-77
2022/07/15 03:35:35;;;;;;;20.53;10.37;;;;;;;21.21;55.98;100239.91;123212;1099;104424;-76
2022/07/15 03:38:07;;;;;;;26.10;10.70;;;;;;;21.29;57.08;100232.69;123289;1099;104585;-76
2022/07/15 03:40:38;;;;;;;28.73;11.37;;;;;;;21.36;55.94;100231.72;123228;1099;104264;-76
2022/07/15 03:43:11;;;;;;;28.40;11.33;;;;;;;21.40;56.47;100224.54;123512;1099;104256;-76
2022/07/15 03:45:42;;;;;;;28.70;10.50;;;;;;;21.45;55.56;100224.48;123631;1099;104400;-77
2022/07/15 03:48:16;;;;;;;24.03;10.33;;;;;;;21.48;55.73;100221.77;123537;1099;104321;-76
2022/07/15 03:50:50;;;;;;;26.97;9.90;;;;;;;21.50;55.56;100218.22;124158;1098;104316;-76
2022/07/15 03:53:22;;;;;;;28.90;10.80;;;;;;;21.50;55.64;100215.55;123613;1099;104162;-75
2022/07/15 03:55:54;;;;;;;25.97;9.73;;;;;;;21.54;55.77;100211.05;123596;1099;104216;-77
2022/07/15 03:58:25;;;;;;;30.33;9.57;;;;;;;21.61;55.19;100217.17;123800;1099;104261;-77
2022/07/15 04:00:57;;;;;;;28.23;9.90;;;;;;;21.62;55.93;100210.94;123779;1099;104393;-75
2022/07/15 04:03:34;;;;;;;29.90;9.83;;;;;;;21.64;55.11;100206.45;123756;1099;104406;-76
2022/07/15 04:06:06;;;;;;;21.47;9.13;;;;;;;21.70;55.72;100203.69;123733;1099;104278;-76
2022/07/15 04:08:38;;;;;;;26.97;9.20;;;;;;;21.73;54.95;100209.85;123727;1099;104653;-76
2022/07/15 04:11:09;;;;;;;25.70;8.63;;;;;;;21.77;55.41;100208.05;123671;1099;104624;-76
2022/07/15 04:13:41;;;;;;;21.07;7.90;;;;;;;21.82;55.21;100207.98;123331;1099;104463;-76
2022/07/15 04:16:13;;;;;;;21.57;7.33;;;;;;;21.85;54.68;100207.92;123625;1099;104255;-76
2022/07/15 04:18:45;;;;;;;21.43;8.53;;;;;;;21.89;55.18;100199.84;123870;1098;104373;-77
2022/07/15 04:21:16;;;;;;;22.13;8.23;;;;;;;21.95;55.16;100208.66;123958;1099;104861;-76
2022/07/15 04:23:48;;;;;;;20.47;8.20;;;;;;;22.01;54.84;100212.10;123870;1099;104750;-75
2022/07/15 04:26:20;;;;;;;24.13;8.97;;;;;;;22.07;55.22;100195.11;123757;1099;104327;-76
2022/07/15 04:28:54;;;;;;;24.87;8.47;;;;;;;22.13;54.24;100203.02;123280;1099;104368;-76
2022/07/15 04:31:29;;;;;;;21.03;8.27;;;;;;;22.17;54.34;100212.73;123623;1099;104302;-76
2022/07/15 04:34:09;;;;;;;27.07;8.60;;;;;;;22.22;54.90;100200.20;123698;1099;104242;-76
2022/07/15 04:36:44;;;;;;;28.30;8.43;;;;;;;22.29;53.99;100205.44;123696;1099;104248;-76
2022/07/15 04:39:16;;;;;;;20.97;8.30;;;;;;;22.35;53.94;100205.36;123838;1099;104242;-76
2022/07/15 04:41:49;;;;;;;21.93;7.97;;;;;;;22.41;54.75;100210.60;123730;1099;104319;-76
2022/07/15 04:44:21;;;;;;;30.53;9.47;;;;;;;22.48;53.58;100217.59;123819;1099;104785;-76
2022/07/15 04:46:53;;;;;;;24.80;8.67;;;;;;;22.54;53.86;100201.43;124031;1099;104245;-77
2022/07/15 04:52:34;;;;;;;;;;;;;;;22.70;53.62;100195.80;123783;1099;104456;-76
2022/07/15 04:55:06;;;;;;;29.50;7.57;;;;;;;22.77;53.36;100197.45;124097;1099;104342;-77
2022/07/15 04:57:38;;;;;;;25.65;7.80;;;;;;;22.84;53.16;100198.21;124120;1099;104293;-78
2022/07/15 05:00:12;;;;;;;25.43;8.27;;;;;;;22.92;53.18;100196.25;123896;1099;104277;-77
2022/07/15 05:02:44;;;;;;;30.37;8.37;;;;;;;23.01;53.12;100201.42;124345;1099;104245;-76
2022/07/15 05:05:17;;;;;;;26.50;8.43;;;;;;;23.07;52.68;100195.95;123941;1099;104444;-78
2022/07/15 05:07:48;;;;;;;28.93;8.87;;;;;;;23.14;52.70;100191.41;123781;1102;104524;-76
2022/07/15 05:10:20;;;;;;;32.50;9.00;;;;;;;23.22;52.58;100199.23;123866;1099;104169;-76
2022/07/15 05:13:03;;;;;;;22.05;8.70;;;;;;;23.29;52.85;100200.88;124051;1102;104409;-77
2022/07/15 05:15:36;;;;;;;28.87;9.37;;;;;;;23.32;52.30;100195.47;124180;1099;104442;-78
2022/07/15 05:18:26;;;;;;;29.27;9.63;;;;;;;23.39;52.31;100196.20;124113;1099;104444;-77
2022/07/15 05:20:59;;;;;;;24.33;8.90;;;;;;;23.42;51.90;100198.81;124643;1102;104413;-77
2022/07/15 05:23:37;;;;;;;26.37;8.93;;;;;;;23.50;52.08;100199.55;125073;1102;104267;-77
2022/07/15 05:26:12;;;;;;;21.70;8.20;;;;;;;23.58;51.91;100197.56;124148;1101;104322;-77
2022/07/15 05:28:45;;;;;;;26.00;8.10;;;;;;;23.67;51.69;100194.68;124415;1102;104247;-77
2022/07/15 05:31:18;;;;;;;23.30;8.95;;;;;;;23.75;51.52;100197.18;124163;1102;104685;-77
2022/07/15 05:33:52;;;;;;;25.72;8.55;;;;;;;23.83;51.26;100191.64;124323;1102;104280;-78
2022/07/15 05:36:38;;;;;;;20.27;8.50;;;;;;;23.92;51.19;100194.13;125439;1102;102646;-78
2022/07/15 05:39:11;;;;;;;22.87;8.03;;;;;;;24.02;51.32;100190.29;125529;1100;102970;-78
2022/07/15 05:41:48;;;;;;;19.07;8.07;;;;;;;24.14;51.21;100193.61;124768;1102;104357;-78
2022/07/15 05:44:23;;;;;;;20.10;8.07;;;;;;;24.23;50.88;100196.92;124530;1099;103328;-77
2022/07/15 05:46:57;;;;;;;22.23;8.53;;;;;;;24.33;50.73;100192.20;124560;1102;104156;-80
2022/07/15 05:49:37;;;;;;;22.47;8.07;;;;;;;24.41;50.87;100195.55;125554;1099;104165;-77
2022/07/15 05:52:11;;;;;;;24.33;7.53;;;;;;;24.53;50.13;100194.36;124451;1102;112152;-76
2022/07/15 05:54:45;;;;;;;22.30;7.37;;;;;;;24.66;50.18;100194.93;124528;1102;104313;-78
2022/07/15 05:57:18;;;;;;;17.52;7.00;;;;;;;24.80;50.24;100191.00;124569;1102;103490;-77
2022/07/15 05:59:51;;;;;;;15.03;4.83;;;;;;;24.93;49.53;100192.39;124794;1101;104265;-76
2022/07/15 06:02:26;;;;;;;11.10;4.20;;;;;;;25.09;48.86;100177.61;124562;1100;103020;-78
2022/07/15 06:05:13;;;;;;;5.77;3.53;;;;;;;25.32;48.10;100181.43;125635;1102;103236;-77
2022/07/15 06:07:49;;;;;;;9.10;3.87;;;;;;;25.50;47.65;100168.39;125575;1101;104127;-80
2022/07/15 06:10:23;;;;;;;7.87;3.65;;;;;;;25.64;46.85;100172.37;125635;1102;104172;-77
2022/07/15 06:13:03;;;;;;;10.27;4.00;;;;;;;25.80;46.62;100161.14;125558;1102;110835;-77
2022/07/15 06:15:39;;;;;;;9.47;3.83;;;;;;;25.97;45.54;100157.89;125730;1102;102774;-77
2022/07/15 06:18:14;;;;;;;10.90;3.90;;;;;;;26.12;45.50;100153.86;124982;1100;104318;-78
2022/07/15 06:20:46;;;;;;;5.40;3.40;;;;;;;26.27;44.57;100152.43;125590;1102;104353;-77
2022/07/15 06:23:19;;;;;;;7.97;3.50;;;;;;;26.41;45.05;100147.44;125508;1102;104245;-80
2022/07/15 06:25:56;;;;;;;6.37;3.60;;;;;;;26.53;44.59;100152.37;125394;1102;102647;-79
2022/07/15 06:31:17;;;;;;;6.67;3.83;;;;;;;26.81;42.36;100150.55;124448;1103;104293;-79
2022/07/15 06:33:48;;;;;;;8.37;3.60;;;;;;;26.95;42.58;100156.28;125518;1102;102156;-79
2022/07/15 06:36:21;;;;;;;8.50;3.60;;;;;;;27.07;41.95;100150.43;125267;1102;104172;-80
2022/07/15 06:38:54;;;;;;;7.87;3.40;;;;;;;27.17;42.16;100147.38;124485;1102;103275;-78
2022/07/15 06:41:26;;;;;;;7.90;3.52;;;;;;;27.27;41.70;100156.88;125653;1102;104636;-77
2022/07/15 06:43:59;;;;;;;12.33;3.67;;;;;;;27.39;41.75;100144.75;125477;1102;104133;-78
2022/07/15 06:46:40;;;;;;;11.60;3.70;;;;;;;27.53;40.95;100138.81;125608;1102;102760;-78
2022/07/15 06:49:11;;;;;;;13.03;3.30;;;;;;;27.66;41.22;100137.39;125621;1102;102630;-79
2022/07/15 06:51:47;;;;;;;9.30;3.40;;;;;;;27.78;40.46;100141.38;124764;1102;104191;-80
2022/07/15 06:54:22;;;;;;;7.10;3.00;;;;;;;27.90;39.61;100142.70;124467;1106;104402;-78
2022/07/15 06:56:57;;;;;;;8.80;2.87;;;;;;;28.00;39.39;100146.78;124185;1105;104245;-78
2022/07/15 06:59:31;;;;;;;6.30;2.90;;;;;;;28.14;39.28;100148.89;124246;1105;104663;-78
2022/07/15 07:02:05;;;;;;;4.40;2.60;;;;;;;28.26;37.99;100142.97;124485;1105;104414;-80
2022/07/15 07:04:43;;;;;;;4.13;2.47;;;;;;;28.43;38.38;100147.62;125311;1105;103134;-79
2022/07/15 07:07:37;;;;;;;6.50;2.80;;;;;;;28.56;38.46;100150.65;124485;1106;102739;-80
2022/07/15 07:10:14;;;;;;;5.67;2.80;;;;;;;28.69;36.63;100142.94;124576;1106;104361;-77
2022/07/15 07:12:52;;;;;;;6.23;2.80;;;;;;;28.85;37.04;100143.97;124465;1105;103649;-81
2022/07/15 07:15:24;;;;;;;6.67;2.80;;;;;;;28.97;36.63;100147.94;124362;1105;104288;-78
2022/07/15 07:17:58;;;;;;;5.30;2.80;;;;;;;29.08;36.09;100146.55;124476;1105;103193;-76
2022/07/15 07:20:33;;;;;;;8.27;3.00;;;;;;;29.21;36.01;100127.02;124551;1102;104382;-77
2022/07/15 07:23:06;;;;;;;5.87;2.60;;;;;;;29.34;35.62;100138.14;124713;1102;103324;-77
2022/07/15 07:25:40;;;;;;;5.77;2.70;;;;;;;29.47;36.00;100132.14;124807;1102;102923;-78
2022/07/15 07:28:14;;;;;;;3.60;2.60;;;;;;;29.60;35.20;100129.70;124770;1102;104256;-77
2022/07/15 07:30:49;;;;;;;6.33;2.60;;;;;;;29.73;34.35;100125.42;124723;1102;104176;-77
2022/07/15 07:33:22;;;;;;;2.97;2.47;;;;;;;29.94;34.19;100123.50;124711;1102;103764;-78
2022/07/15 07:35:54;;;;;;;5.00;2.27;;;;;;;30.10;33.80;100129.86;124658;1099;102934;-76
2022/07/15 07:38:27;;;;;;;5.90;2.50;;;;;;;30.26;33.98;100129.97;126158;1099;101775;-77
2022/07/15 07:41:03;;;;;;;7.87;2.53;;;;;;;30.38;33.40;100124.86;126906;1098;102134;-79
2022/07/15 07:43:37;;;;;;;7.10;2.30;;;;;;;30.51;33.12;100126.00;126760;1099;102294;-76
2022/07/15 07:46:09;;;;;;;8.63;2.90;;;;;;;30.67;32.82;100126.05;126726;1098;102150;-82
2022/07/15 07:48:45;;;;;;;5.70;2.50;;;;;;;30.79;32.44;100122.67;126793;1098;102499;-78
2022/07/15 07:51:23;;;;;;;8.07;2.60;;;;;;;30.96;32.35;100127.17;126728;1099;102933;-78
2022/07/15 07:53:59;;;;;;;5.53;2.50;;;;;;;31.10;32.20;100122.83;126687;1099;103964;-77
2022/07/15 07:56:40;;;;;;;4.20;2.23;;;;;;;31.23;31.95;100123.02;126693;1099;102964;-82
2022/07/15 07:59:15;;;;;;;3.47;2.20;;;;;;;31.40;31.80;100119.34;126705;1099;102863;-78
2022/07/15 08:01:49;;;;;;;3.93;2.10;;;;;;;31.51;31.52;100117.78;126693;1099;102531;-79
2022/07/15 08:04:22;;;;;;;3.83;2.00;;;;;;;31.63;30.93;100110.78;126730;1099;102250;-79
2022/07/15 08:13:31;;;;;;;3.40;2.17;;;;;;;32.22;29.82;100118.20;126026;1100;103064;-79
2022/07/15 08:16:12;;;;;;;8.33;2.50;;;;;;;32.35;29.93;100115.61;125971;1099;102347;-79
2022/07/15 08:22:04;;;;;;;3.73;2.07;;;;;;;32.63;29.26;100101.22;126120;1099;102496;-78
2022/07/15 08:24:36;;;;;;;7.53;2.67;;;;;;;32.77;28.29;100098.52;126050;1102;103021;-78
2022/07/15 08:27:09;;;;;;;4.87;2.50;;;;;;;32.88;27.81;100115.97;126107;1102;102614;-77
2022/07/15 08:29:46;;;;;;;5.60;2.30;;;;;;;33.00;27.96;100106.17;125959;1099;103406;-79
2022/07/15 08:32:21;;;;;;;5.70;2.57;;;;;;;33.14;27.54;100106.14;126034;1102;102613;-78
2022/07/15 08:34:56;;;;;;;2.90;2.10;;;;;;;33.20;27.17;100103.06;126015;1102;103827;-78
2022/07/15 08:37:31;;;;;;;3.73;2.43;;;;;;;33.26;26.95;100101.80;126101;1102;102517;-79
2022/07/15 08:40:17;;;;;;;6.13;2.60;;;;;;;33.34;26.75;100101.30;126851;1098;101902;-78
2022/07/15 08:42:58;;;;;;;2.53;2.20;;;;;;;33.43;26.85;100092.53;126836;1099;101973;-80
2022/07/15 08:45:37;;;;;;;2.90;2.27;;;;;;;33.48;26.92;100087.64;126847;1098;102752;-80
2022/07/15 08:48:18;;;;;;;7.57;2.50;;;;;;;33.53;26.49;100084.62;126864;1099;102904;-79
2022/07/15 08:50:56;;;;;;;3.43;2.37;;;;;;;33.59;26.30;100076.91;126810;1099;102571;-81
2022/07/15 08:53:38;;;;;;;5.37;2.40;;;;;;;33.72;26.34;100079.70;117740;1096;10000820;-82
2022/07/15 08:56:29;;;;;;;7.20;2.87;;;;;;;33.80;25.79;100079.17;126164;1098;119471;-80
2022/07/15 08:59:08;;;;;;;4.87;2.60;;;;;;;33.87;26.16;100066.91;126162;1099;102514;-81
2022/07/15 09:01:48;;;;;;;5.10;2.20;;;;;;;33.95;25.69;100069.96;126278;1099;103137;-80
2022/07/15 09:04:24;;;;;;;5.73;2.70;;;;;;;34.00;25.77;100067.81;126106;1099;104226;-79
2022/07/15 09:07:04;;;;;;;6.10;2.50;;;;;;;34.12;26.00;100070.66;126188;1099;104180;-78
2022/07/15 09:09:44;;;;;;;7.97;2.27;;;;;;;34.21;25.96;100070.87;126893;1099;102085;-83
2022/07/15 09:12:21;;;;;;;5.77;2.63;;;;;;;34.18;24.85;100068.37;126854;1098;103461;-83
2022/07/15 09:15:02;;;;;;;3.90;2.37;;;;;;;34.19;25.37;100066.54;126664;1098;102584;-79
2022/07/15 09:17:36;;;;;;;7.40;2.67;;;;;;;34.19;25.12;100059.23;126758;1098;102836;-79
2022/07/15 09:20:14;;;;;;;2.50;2.30;;;;;;;34.17;24.77;100054.86;126408;1099;102666;-77
2022/07/15 09:22:55;;;;;;;2.50;2.27;;;;;;;34.22;25.09;100055.44;126534;1099;103030;-80
2022/07/15 09:25:28;;;;;;;2.57;2.30;;;;;;;34.22;24.39;100055.44;126776;1098;103311;-79
2022/07/15 09:28:10;;;;;;;4.23;2.27;;;;;;;34.31;24.35;100045.76;126785;1099;103427;-80
2022/07/15 09:33:40;;;;;;;2.62;2.12;;;;;;;34.37;23.68;100054.35;126755;1099;102667;-79
2022/07/15 09:36:20;;;;;;;3.07;2.23;;;;;;;34.43;24.01;100057.64;126742;1099;105012;-80
2022/07/15 09:38:55;;;;;;;2.90;2.20;;;;;;;34.44;23.69;100052.09;126731;1099;102363;-80
2022/07/15 09:41:36;;;;;;;4.57;2.57;;;;;;;34.44;23.38;100043.02;126517;1099;102314;-80
2022/07/15 09:44:10;;;;;;;4.27;2.37;;;;;;;34.43;23.30;100031.27;126646;1099;103082;-78
2022/07/15 09:46:48;;;;;;;3.10;2.20;;;;;;;34.39;22.98;100032.45;126492;1099;102947;-78
2022/07/15 09:49:47;;;;;;;4.40;2.47;;;;;;;34.38;22.40;100031.59;126545;1099;102115;-78
2022/07/15 09:52:24;;;;;;;3.80;2.30;;;;;;;34.49;22.38;100035.42;126760;1099;103395;-78
2022/07/15 09:55:02;;;;;;;2.97;2.30;;;;;;;34.49;22.43;100027.25;126810;1098;102939;-78
2022/07/15 09:57:38;;;;;;;7.37;2.70;;;;;;;34.53;22.57;100028.74;126827;1097;102705;-78
2022/07/15 10:00:13;;;;;;;6.23;2.17;;;;;;;34.60;22.69;100029.20;126734;1099;103207;-79
2022/07/15 10:02:47;;;;;;;2.90;2.40;;;;;;;34.59;22.28;100017.41;126602;1099;102805;-80
2022/07/15 10:05:19;;;;;;;10.10;2.73;;;;;;;34.63;22.58;100009.91;126733;1098;102953;-79
2022/07/15 10:07:56;;;;;;;6.27;2.33;;;;;;;34.67;22.90;100016.84;126864;1098;102528;-80
2022/07/15 10:10:28;;;;;;;3.43;2.13;;;;;;;34.71;22.58;100026.55;126712;1098;102287;-80
2022/07/15 10:13:18;;;;;;;2.37;1.90;;;;;;;34.66;22.04;100020.58;126008;1102;102247;-78
2022/07/15 10:16:06;;;;;;;5.43;2.23;;;;;;;34.66;22.32;100018.72;126064;1101;103332;-79
2022/07/15 10:18:56;;;;;;;3.40;2.23;;;;;;;34.70;21.81;100009.34;126012;1100;102837;-79
2022/07/15 10:21:46;;;;;;;2.83;2.30;;;;;;;34.71;21.92;100002.89;126056;1102;102569;-79
2022/07/15 10:24:39;;;;;;;4.93;2.60;;;;;;;34.78;21.91;100002.47;126105;1100;102146;-78
2022/07/15 10:30:25;;;;;;;6.53;2.80;;;;;;;34.66;21.88;99994.20;126131;1102;103509;-79
2022/07/15 10:33:19;;;;;;;3.87;2.23;;;;;;;34.53;21.74;99986.05;126101;1102;102994;-81
2022/07/15 10:35:56;;;;;;;5.33;2.43;;;;;;;34.48;22.12;99981.91;126095;1102;102454;-78
2022/07/15 10:38:35;;;;;;;8.17;2.57;;;;;;;34.48;22.03;99990.95;126594;1099;102057;-81
2022/07/15 10:41:16;;;;;;;3.95;2.30;;;;;;;34.44;21.99;99992.17;125637;1099;103301;-78
2022/07/15 10:43:50;;;;;;;4.63;2.50;;;;;;;34.43;21.98;99979.52;124860;1099;103380;-78
2022/07/15 10:46:29;;;;;;;3.03;2.47;;;;;;;34.43;22.09;99982.25;125336;1099;104261;-79
2022/07/15 10:49:31;;;;;;;3.20;2.43;;;;;;;34.49;22.29;99979.08;125530;1099;103229;-79
2022/07/15 10:52:19;;;;;;;6.23;2.57;;;;;;;34.55;21.96;99978.63;124726;1100;104450;-79
2022/07/15 10:55:07;;;;;;;3.37;2.33;;;;;;;34.55;22.07;99980.50;124755;1102;104394;-82
2022/07/15 10:58:00;;;;;;;5.77;2.43;;;;;;;34.65;21.73;99975.23;125581;1099;103402;-79
2022/07/15 11:00:36;;;;;;;;;;;;;;;34.68;21.19;99978.59;125509;1099;104335;-78
2022/07/15 11:03:13;;;;;;;7.20;2.53;;;;;;;34.81;21.36;99977.72;125493;1099;104208;-78
2022/07/15 11:06:04;;;;;;;2.97;2.67;;;;;;;34.86;21.09;99973.68;125493;1099;102598;-79
2022/07/15 11:09:01;;;;;;;8.57;2.50;;;;;;;34.90;21.26;99964.27;125479;1099;103521;-79
2022/07/15 11:12:00;;;;;;;12.37;2.90;;;;;;;34.91;21.45;99966.02;125581;1100;104197;-79
2022/07/15 11:14:52;;;;;;;8.40;2.57;;;;;;;34.98;21.56;99960.97;125071;1102;104312;-79
2022/07/15 11:17:39;;;;;;;2.67;2.47;;;;;;;35.02;21.34;99962.49;124478;1099;104162;-78
2022/07/15 11:20:15;;;;;;;5.93;2.40;;;;;;;35.06;21.05;99965.84;125544;1102;104307;-80
2022/07/15 11:22:51;;;;;;;4.73;2.83;;;;;;;35.15;21.13;99961.56;124544;1099;103284;-78
2022/07/15 11:25:37;;;;;;;5.47;3.10;;;;;;;35.25;21.15;99957.17;124649;1098;104214;-77
2022/07/15 11:28:12;;;;;;;4.35;2.65;;;;;;;35.35;20.82;99968.27;126127;1099;104162;-81
2022/07/15 11:30:48;;;;;;;4.97;2.50;;;;;;;35.32;20.73;99963.05;126110;1099;102734;-82
2022/07/15 11:33:25;;;;;;;6.03;2.60;;;;;;;35.19;21.36;99952.18;126292;1099;104136;-80
2022/07/15 11:36:21;;;;;;;6.03;2.80;;;;;;;35.04;21.28;99955.06;125496;1102;102325;-80
2022/07/15 11:38:58;;;;;;;5.20;2.57;;;;;;;34.91;21.46;99955.13;125594;1102;102365;-80
2022/07/15 11:44:43;;;;;;;4.83;2.53;;;;;;;34.63;21.55;99958.14;125373;1102;102492;-79
2022/07/15 11:47:30;;;;;;;9.10;2.60;;;;;;;34.55;21.70;99954.12;125571;1102;104294;-83
2022/07/15 11:50:08;;;;;;;6.33;2.43;;;;;;;34.45;21.79;99944.87;125696;1102;104331;-79
2022/07/15 11:52:50;;;;;;;3.83;2.50;;;;;;;34.32;21.10;99942.17;125603;1102;104207;-79
2022/07/15 11:55:23;;;;;;;2.93;2.40;;;;;;;34.24;21.83;99944.59;125588;1102;104169;-81
2022/07/15 11:57:59;;;;;;;7.47;3.07;;;;;;;34.18;21.81;99945.00;125608;1102;104172;-77
2022/07/15 12:00:34;;;;;;;5.23;2.60;;;;;;;34.12;22.09;99946.30;124707;1102;104389;-80
2022/07/15 12:03:12;;;;;;;11.70;3.10;;;;;;;34.08;21.53;99938.46;125468;1102;104297;-81
2022/07/15 12:06:00;;;;;;;6.97;2.73;;;;;;;34.07;21.83;99947.63;125688;1102;105336;-81
2022/07/15 12:08:51;;;;;;;5.13;2.40;;;;;;;34.08;22.02;99938.46;125579;1102;102744;-81
2022/07/15 12:11:33;;;;;;;3.93;2.47;;;;;;;34.08;21.93;99939.36;125635;1102;104233;-79